Aérodrome :
LOGIN :

S'inscrire | Disclaimer

   EN    FR    IT 

 










Légende :    VFR   VFR Marginal   IFR   IFR Intensif   IFR Très Intensif
Visi : 
Plafond : 
>= 8 km
>= 3000ft
5 à 8 km
1000 à 3000 ft
1500m à 5 km
500 à 1000 ft
800 à 1500m
200 à 500 ft
< 800m
< 200 ft
Symboles :   Orages  Brouillard  Fortes neiges  Fortes précipitations  Vent > 20 kt
SIGMETs :   Divers  Orages  Givrage  Turbulence  Onde Orograph.  Cendres Volcan.






- Altitude de l'aérodrome : 157 ft
- Code IATA : LIL


LFQQ - Lille Lesquin

DERNIER METAR :
  • 281630Z AUTO 03006KT CAVOK 09/06 Q1019 NOSIG

METARs EXPIRÉS :
  • 281600Z AUTO 03006KT CAVOK 09/06 Q1018 NOSIG
  • 281530Z AUTO 03007KT CAVOK 10/06 Q1018 BECMG 1200 BR OVC003
  • 281500Z AUTO 03007KT CAVOK 11/07 Q1018 BECMG 1200 BR OVC003
  • 281430Z AUTO 05006KT CAVOK 11/06 Q1018 BECMG 1200 BR OVC003
  • 281400Z AUTO 04007KT CAVOK 11/06 Q1018 NOSIG

TAF AMD TAF LFQQ
Valide du 28 à 15h jusqu'au 29 à 18h UTC


281534Z 2815/2918 03006KT 8000 NSC
BECMG 2822/2824 0200 FG VV///
TEMPO 2900/2911 0800 OVC003
BECMG 2911/2913 3000 BR OVC004
ATIS : +33 3 20 16 19 54



MET'MAP, la Météo Aéronautique d'un coup d'oeil ! - Copyright ORBIFLY Décembre 2007 - Disclaimer

ORBIFLY MET'MAP TEAM :

Programmation & Développement : Alexandra Zaïnal
Sur une idée originale de : Baudouin d'Aumeries
Assistance à la programmation : Marc-Olivier Méhu
Soutien technique & logistique : Manuel Goepfert

Contact : metmap@orbifly.com




SOURCES & CREDITS :

   NOAA